createdAt,value
2022-11-06T00:03:12.883Z,100.00
2022-11-06T00:07:14.644Z,100.00
2022-11-06T00:11:17.619Z,100.00
2022-11-06T00:15:19.166Z,100.00
2022-11-06T00:19:20.659Z,100.00
2022-11-06T00:23:22.088Z,100.00
2022-11-06T00:27:23.519Z,100.00
2022-11-06T00:31:30.691Z,100.00
2022-11-06T00:35:32.105Z,100.00
2022-11-06T00:39:33.633Z,100.00
2022-11-06T00:43:35.893Z,100.00
2022-11-06T00:47:37.316Z,100.00
2022-11-06T00:51:41.322Z,100.00
2022-11-06T00:55:42.722Z,100.00
2022-11-06T00:59:44.159Z,100.00
2022-11-06T01:03:47.624Z,100.00
2022-11-06T01:07:49.182Z,100.00
2022-11-06T01:16:16.279Z,100.00
2022-11-06T01:20:20.758Z,100.00
2022-11-06T01:24:26.061Z,100.00
2022-11-06T01:28:28.193Z,100.00
2022-11-06T01:32:29.613Z,100.00
2022-11-06T01:36:31.806Z,100.00
2022-11-06T01:40:41.155Z,100.00
2022-11-06T01:44:42.490Z,100.00
2022-11-06T01:48:48.784Z,100.00
2022-11-06T01:52:51.539Z,100.00
2022-11-06T01:56:56.221Z,100.00
2022-11-06T02:00:57.966Z,100.00
2022-11-06T02:04:59.424Z,100.00
2022-11-06T02:09:01.719Z,100.00
2022-11-06T02:13:15.100Z,100.00
2022-11-06T02:17:44.374Z,100.00
2022-11-06T02:22:05.888Z,100.00
2022-11-06T02:26:29.029Z,100.00
2022-11-06T02:30:41.478Z,100.00
2022-11-06T02:34:44.443Z,100.00
2022-11-06T02:38:56.493Z,100.00
2022-11-06T02:43:01.310Z,100.00
2022-11-06T02:47:06.781Z,100.00
2022-11-06T02:51:12.459Z,100.00
2022-11-06T02:55:22.978Z,100.00
2022-11-06T02:59:40.176Z,100.00
2022-11-06T03:03:48.113Z,100.00
2022-11-06T03:08:03.500Z,100.00
2022-11-06T03:12:19.300Z,100.00
2022-11-06T03:17:00.797Z,100.00
2022-11-06T03:21:13.046Z,100.00
2022-11-06T03:25:22.069Z,100.00
2022-11-06T03:29:43.577Z,100.00
2022-11-06T03:33:57.285Z,100.00
2022-11-06T03:38:05.257Z,100.00
2022-11-06T03:42:12.144Z,100.00
2022-11-06T03:46:19.337Z,100.00
2022-11-06T03:50:35.069Z,100.00
2022-11-06T03:54:42.750Z,100.00
2022-11-06T03:58:46.992Z,100.00
2022-11-06T04:03:20.298Z,100.00
2022-11-06T04:07:26.202Z,100.00
2022-11-06T04:11:48.171Z,100.00
2022-11-06T04:15:53.829Z,100.00
2022-11-06T04:20:02.829Z,100.00
2022-11-06T04:24:35.106Z,100.00
2022-11-06T04:28:48.292Z,100.00
2022-11-06T04:33:10.138Z,100.00
2022-11-06T04:37:22.642Z,100.00
2022-11-06T04:41:34.515Z,100.00
2022-11-06T04:45:41.332Z,100.00
2022-11-06T04:49:44.513Z,100.00
2022-11-06T04:53:49.097Z,100.00
2022-11-06T04:57:50.874Z,100.00
2022-11-06T05:01:52.487Z,100.00
2022-11-06T05:05:53.860Z,100.00
2022-11-06T05:09:55.228Z,100.00
2022-11-06T05:13:56.642Z,100.00
2022-11-06T05:17:58.681Z,100.00
2022-11-06T05:22:18.697Z,100.00
2022-11-06T05:26:20.118Z,100.00
2022-11-06T05:30:21.966Z,100.00
2022-11-06T05:34:23.356Z,100.00
2022-11-06T05:38:24.804Z,100.00
2022-11-06T05:42:26.282Z,100.00
2022-11-06T05:46:47.604Z,100.00
2022-11-06T05:50:49.180Z,100.00
2022-11-06T05:54:50.636Z,100.00
2022-11-06T05:58:52.098Z,100.00
2022-11-06T06:02:53.527Z,100.00
2022-11-06T06:06:54.955Z,100.00
2022-11-06T06:10:56.347Z,100.00
2022-11-06T06:14:57.678Z,100.00
2022-11-06T06:18:59.184Z,100.00
2022-11-06T06:23:00.829Z,100.00
2022-11-06T06:27:02.266Z,100.00
2022-11-06T06:31:05.686Z,100.00
2022-11-06T06:35:07.395Z,100.00
2022-11-06T06:39:08.766Z,100.00
2022-11-06T06:43:10.277Z,100.00
2022-11-06T06:47:11.650Z,100.00
2022-11-06T06:51:13.078Z,100.00
2022-11-06T06:55:14.469Z,100.00
2022-11-06T06:59:15.874Z,100.00
2022-11-06T07:03:17.293Z,100.00
2022-11-06T07:07:18.767Z,100.00
2022-11-06T07:11:20.158Z,100.00
2022-11-06T07:15:21.523Z,100.00
2022-11-06T07:19:23.064Z,100.00
2022-11-06T07:23:24.440Z,100.00
2022-11-06T07:27:26.945Z,100.00
2022-11-06T07:31:30.500Z,100.00
2022-11-06T07:35:34.281Z,100.00
2022-11-06T07:39:35.699Z,100.00
2022-11-06T07:43:37.606Z,100.00
2022-11-06T07:47:39.065Z,100.00
2022-11-06T07:51:40.478Z,100.00
2022-11-06T07:55:48.628Z,100.00
2022-11-06T07:59:50.011Z,100.00
2022-11-06T08:03:51.366Z,100.00
2022-11-06T08:07:56.676Z,100.00
2022-11-06T08:11:58.137Z,100.00
2022-11-06T08:16:03.782Z,100.00
2022-11-06T08:20:05.816Z,100.00
2022-11-06T08:24:08.382Z,100.00
2022-11-06T08:28:10.554Z,100.00
2022-11-06T08:32:12.230Z,100.00
2022-11-06T08:36:13.825Z,100.00
2022-11-06T08:40:15.235Z,100.00
2022-11-06T08:44:16.699Z,100.00
2022-11-06T08:48:18.489Z,100.00
2022-11-06T08:52:19.906Z,100.00
2022-11-06T08:56:21.345Z,100.00
2022-11-06T09:00:23.528Z,100.00
2022-11-06T09:04:24.976Z,100.00
2022-11-06T09:08:26.782Z,100.00
2022-11-06T09:12:28.204Z,100.00
2022-11-06T09:16:29.698Z,100.00
2022-11-06T09:20:31.205Z,100.00
2022-11-06T09:25:01.394Z,100.00
2022-11-06T09:28:53.960Z,100.00
2022-11-06T09:32:57.914Z,100.00
2022-11-06T09:37:02.121Z,100.00
2022-11-06T09:41:04.676Z,100.00
2022-11-06T09:45:16.013Z,100.00
2022-11-06T09:49:34.718Z,100.00
2022-11-06T09:53:42.561Z,100.00
2022-11-06T09:57:50.862Z,100.00
2022-11-06T10:01:58.069Z,100.00
2022-11-06T10:05:59.637Z,100.00
2022-11-06T10:10:04.066Z,100.00
2022-11-06T10:14:36.042Z,100.00
2022-11-06T10:18:56.008Z,100.00
2022-11-06T10:23:05.550Z,100.00
2022-11-06T10:27:16.860Z,100.00
2022-11-06T10:31:39.304Z,100.00
2022-11-06T10:35:47.100Z,100.00
2022-11-06T10:39:49.592Z,100.00
2022-11-06T10:44:01.208Z,100.00
2022-11-06T10:48:18.383Z,100.00
2022-11-06T10:52:48.555Z,100.00
2022-11-06T10:57:11.724Z,100.00
2022-11-06T11:01:14.989Z,100.00
2022-11-06T11:05:19.168Z,100.00
2022-11-06T11:09:27.949Z,100.00
2022-11-06T11:13:29.673Z,100.00
2022-11-06T11:17:31.193Z,100.00
2022-11-06T11:21:34.576Z,100.00
2022-11-06T11:25:36.113Z,100.00
2022-11-06T11:29:50.427Z,99.80
2022-11-06T11:33:55.758Z,99.16
2022-11-06T11:38:11.956Z,94.52
2022-11-06T11:42:31.781Z,95.02
2022-11-06T11:46:33.849Z,96.76
2022-11-06T11:50:35.999Z,93.96
2022-11-06T11:54:38.166Z,95.22
2022-11-06T11:58:39.724Z,94.81
2022-11-06T12:02:44.690Z,93.51
2022-11-06T12:06:56.708Z,93.34
2022-11-06T12:11:03.605Z,92.75
2022-11-06T12:15:17.269Z,89.97
2022-11-06T12:19:21.321Z,90.80
2022-11-06T12:23:22.649Z,89.20
2022-11-06T12:27:33.140Z,88.84
2022-11-06T12:31:46.744Z,90.83
2022-11-06T12:36:07.888Z,86.55
2022-11-06T12:40:25.656Z,89.08
2022-11-06T12:44:27.291Z,88.46
2022-11-06T12:48:48.262Z,86.03
2022-11-06T12:53:27.122Z,88.25
2022-11-06T12:57:53.426Z,84.48
2022-11-06T13:02:17.065Z,83.43
2022-11-06T13:06:35.891Z,88.15
2022-11-06T13:10:48.349Z,82.35
2022-11-06T13:15:23.273Z,79.88
2022-11-06T13:19:33.316Z,82.26
2022-11-06T13:23:43.057Z,82.72
2022-11-06T13:28:01.918Z,80.61
2022-11-06T13:32:11.355Z,79.86
2022-11-06T13:36:13.895Z,78.51
2022-11-06T13:40:27.113Z,75.18
2022-11-06T13:44:29.810Z,75.73
2022-11-06T13:48:41.442Z,81.17
2022-11-06T13:52:54.516Z,77.84
2022-11-06T13:57:32.499Z,76.53
2022-11-06T14:01:43.103Z,79.52
2022-11-06T14:05:51.059Z,79.07
2022-11-06T14:09:53.088Z,79.55
2022-11-06T14:14:03.389Z,80.17
2022-11-06T14:18:05.682Z,79.49
2022-11-06T14:22:45.330Z,77.63
2022-11-06T14:26:49.338Z,82.46
2022-11-06T14:31:11.524Z,79.04
2022-11-06T14:35:31.002Z,78.19
2022-11-06T14:39:51.198Z,77.87
2022-11-06T14:43:59.726Z,79.87
2022-11-06T14:48:02.031Z,79.90
2022-11-06T14:52:08.188Z,79.67
2022-11-06T14:56:12.199Z,82.04
2022-11-06T15:00:33.032Z,84.13
2022-11-06T15:04:35.311Z,85.22
2022-11-06T15:09:01.601Z,89.04
2022-11-06T15:13:22.962Z,90.71
2022-11-06T15:17:26.848Z,93.54
2022-11-06T15:21:34.626Z,94.10
2022-11-06T15:25:45.655Z,95.98
2022-11-06T15:29:51.908Z,96.78
2022-11-06T15:34:07.582Z,96.82
2022-11-06T15:38:19.560Z,97.54
2022-11-06T15:42:32.760Z,98.14
2022-11-06T15:47:03.483Z,100.00
2022-11-06T15:51:24.575Z,99.53
2022-11-06T15:55:34.980Z,100.00
2022-11-06T15:59:36.340Z,100.00
2022-11-06T16:03:52.162Z,100.00
2022-11-06T16:07:53.689Z,100.00
2022-11-06T16:11:55.976Z,100.00
2022-11-06T16:16:00.558Z,100.00
2022-11-06T16:20:04.214Z,100.00
2022-11-06T16:24:15.507Z,100.00
2022-11-06T16:28:20.297Z,100.00
2022-11-06T16:32:25.887Z,100.00
2022-11-06T16:36:29.878Z,100.00
2022-11-06T16:40:50.091Z,100.00
2022-11-06T16:45:00.315Z,100.00
2022-11-06T16:49:54.010Z,100.00
2022-11-06T16:53:57.201Z,100.00
2022-11-06T16:58:01.982Z,100.00
2022-11-06T17:02:04.418Z,100.00
2022-11-06T17:06:06.911Z,100.00
2022-11-06T17:10:35.394Z,100.00
2022-11-06T17:14:37.018Z,100.00
2022-11-06T17:18:39.226Z,100.00
2022-11-06T17:22:40.625Z,100.00
2022-11-06T17:26:47.924Z,100.00
2022-11-06T17:30:49.673Z,100.00
2022-11-06T17:34:51.033Z,100.00
2022-11-06T17:38:56.677Z,100.00
2022-11-06T17:42:58.107Z,100.00
2022-11-06T17:46:59.494Z,100.00
2022-11-06T17:51:19.534Z,100.00
2022-11-06T17:55:20.951Z,100.00
2022-11-06T17:59:23.866Z,100.00
2022-11-06T18:03:25.425Z,100.00
2022-11-06T18:07:26.944Z,100.00
2022-11-06T18:11:29.002Z,100.00
2022-11-06T18:15:34.182Z,100.00
2022-11-06T18:19:35.774Z,100.00
2022-11-06T18:23:37.543Z,100.00
2022-11-06T18:27:38.970Z,100.00
2022-11-06T18:31:41.161Z,100.00
2022-11-06T18:35:42.696Z,100.00
2022-11-06T18:39:44.106Z,100.00
2022-11-06T18:43:45.999Z,100.00
2022-11-06T18:47:47.451Z,100.00
2022-11-06T18:51:48.903Z,100.00
2022-11-06T18:55:50.464Z,100.00
2022-11-06T18:59:51.912Z,100.00
2022-11-06T19:03:53.590Z,100.00
2022-11-06T19:08:00.033Z,100.00
2022-11-06T19:12:02.213Z,100.00
2022-11-06T19:16:04.870Z,100.00
2022-11-06T19:20:08.588Z,100.00
2022-11-06T19:24:15.021Z,100.00
2022-11-06T19:28:17.607Z,100.00
2022-11-06T19:32:19.065Z,100.00
2022-11-06T19:36:20.523Z,100.00
2022-11-06T19:40:22.005Z,100.00
2022-11-06T19:44:23.548Z,100.00
2022-11-06T19:48:24.930Z,100.00
2022-11-06T19:52:41.345Z,100.00
2022-11-06T19:57:27.029Z,100.00
2022-11-06T20:01:13.181Z,100.00
2022-11-06T20:05:14.705Z,100.00
2022-11-06T20:09:16.135Z,100.00
2022-11-06T20:13:17.732Z,100.00
2022-11-06T20:17:19.987Z,100.00
2022-11-06T20:21:22.623Z,100.00
2022-11-06T20:25:24.160Z,100.00
2022-11-06T20:29:26.045Z,100.00
2022-11-06T20:33:27.452Z,100.00
2022-11-06T20:37:29.389Z,100.00
2022-11-06T20:41:30.999Z,100.00
2022-11-06T20:45:37.672Z,100.00
2022-11-06T20:49:43.387Z,100.00
2022-11-06T20:53:45.884Z,100.00
2022-11-06T20:57:47.878Z,100.00
2022-11-06T21:01:49.582Z,100.00
2022-11-06T21:05:51.228Z,100.00
2022-11-06T21:09:52.821Z,100.00
2022-11-06T21:13:55.392Z,100.00
2022-11-06T21:17:56.761Z,100.00
2022-11-06T21:21:58.776Z,100.00
2022-11-06T21:26:08.133Z,100.00
2022-11-06T21:30:13.774Z,100.00
2022-11-06T21:34:15.250Z,100.00
2022-11-06T21:38:16.975Z,100.00
2022-11-06T21:42:18.387Z,100.00
2022-11-06T21:46:21.141Z,100.00
2022-11-06T21:50:29.530Z,100.00
2022-11-06T21:54:50.286Z,100.00
2022-11-06T21:58:52.476Z,100.00
2022-11-06T22:02:53.878Z,100.00
2022-11-06T22:06:55.263Z,100.00
2022-11-06T22:10:56.658Z,100.00
2022-11-06T22:14:58.018Z,100.00
2022-11-06T22:18:59.702Z,100.00
2022-11-06T22:23:01.082Z,100.00
2022-11-06T22:27:02.440Z,100.00
2022-11-06T22:31:04.259Z,100.00
2022-11-06T22:35:05.763Z,100.00
2022-11-06T22:39:09.022Z,100.00
2022-11-06T22:43:10.647Z,100.00
2022-11-06T22:47:12.289Z,100.00
2022-11-06T22:51:16.258Z,100.00
2022-11-06T22:55:17.606Z,100.00
2022-11-06T22:59:21.089Z,100.00
2022-11-06T23:03:23.655Z,100.00
2022-11-06T23:07:25.098Z,100.00
2022-11-06T23:11:28.432Z,100.00
2022-11-06T23:15:30.021Z,100.00
2022-11-06T23:19:31.894Z,100.00
2022-11-06T23:23:33.243Z,100.00
2022-11-06T23:27:35.677Z,100.00
2022-11-06T23:31:37.090Z,100.00
2022-11-06T23:35:38.443Z,100.00
2022-11-06T23:39:39.840Z,100.00
2022-11-06T23:43:41.229Z,100.00
2022-11-06T23:47:42.590Z,100.00
2022-11-06T23:51:43.911Z,100.00
2022-11-06T23:55:45.249Z,100.00
2022-11-06T23:59:47.366Z,100.00
